createdAt,value
2023-02-03T00:01:16.760Z,1.80
2023-02-03T00:03:47.929Z,1.47
2023-02-03T00:06:16.313Z,1.87
2023-02-03T00:08:45.193Z,1.30
2023-02-03T00:11:14.259Z,1.67
2023-02-03T00:13:44.413Z,1.63
2023-02-03T00:16:15.703Z,1.60
2023-02-03T00:18:49.521Z,1.33
2023-02-03T00:21:17.854Z,1.30
2023-02-03T00:23:48.080Z,1.00
2023-02-03T00:26:20.234Z,1.30
2023-02-03T00:28:50.507Z,1.43
2023-02-03T00:31:21.259Z,1.40
2023-02-03T00:33:57.002Z,1.50
2023-02-03T00:36:25.629Z,1.40
2023-02-03T00:38:57.795Z,1.40
2023-02-03T00:41:30.435Z,2.43
2023-02-03T00:43:58.520Z,1.90
2023-02-03T00:46:28.255Z,1.93
2023-02-03T00:48:58.584Z,2.60
2023-02-03T00:51:26.846Z,1.77
2023-02-03T00:53:58.647Z,1.70
2023-02-03T00:56:28.671Z,2.30
2023-02-03T00:58:56.536Z,2.50
2023-02-03T01:01:25.616Z,2.40
2023-02-03T01:03:56.478Z,1.90
2023-02-03T01:06:28.397Z,2.83
2023-02-03T01:08:56.990Z,2.17
2023-02-03T01:11:28.114Z,2.40
2023-02-03T01:13:57.000Z,1.97
2023-02-03T01:16:28.556Z,2.30
2023-02-03T01:19:00.183Z,2.30
2023-02-03T01:21:28.439Z,1.87
2023-02-03T01:23:57.616Z,2.10
2023-02-03T01:26:25.712Z,2.37
2023-02-03T01:28:58.043Z,2.13
2023-02-03T01:31:31.351Z,1.87
2023-02-03T01:34:02.468Z,1.90
2023-02-03T01:36:32.663Z,1.90
2023-02-03T01:39:02.959Z,1.80
2023-02-03T01:41:38.157Z,2.07
2023-02-03T01:44:37.883Z,2.27
2023-02-03T01:47:07.244Z,1.87
2023-02-03T01:49:46.203Z,2.13
2023-02-03T01:52:15.496Z,1.47
2023-02-03T01:54:46.113Z,2.20
2023-02-03T01:57:17.277Z,2.10
2023-02-03T01:59:45.255Z,2.07
2023-02-03T02:02:17.322Z,1.70
2023-02-03T02:04:55.294Z,1.60
2023-02-03T02:07:26.910Z,1.50
2023-02-03T02:09:56.736Z,1.80
2023-02-03T02:12:24.707Z,1.97
2023-02-03T02:14:54.730Z,1.60
2023-02-03T02:17:40.482Z,1.77
2023-02-03T02:20:33.870Z,1.40
2023-02-03T02:23:54.032Z,1.93
2023-02-03T02:26:50.646Z,1.43
2023-02-03T02:29:53.078Z,1.63
2023-02-03T02:32:31.445Z,1.47
2023-02-03T02:35:04.874Z,1.27
2023-02-03T02:37:40.677Z,1.60
2023-02-03T02:40:16.183Z,1.47
2023-02-03T02:42:52.493Z,1.23
2023-02-03T02:45:26.374Z,1.70
2023-02-03T02:48:04.739Z,1.10
2023-02-03T02:50:39.790Z,1.43
2023-02-03T02:53:08.629Z,1.17
2023-02-03T02:55:40.394Z,1.20
2023-02-03T02:58:11.735Z,1.43
2023-02-03T03:00:42.235Z,1.17
2023-02-03T03:03:24.590Z,1.00
2023-02-03T03:05:59.285Z,1.47
2023-02-03T03:08:30.050Z,1.30
2023-02-03T03:11:01.178Z,1.10
2023-02-03T03:13:39.999Z,1.23
2023-02-03T03:16:11.631Z,1.50
2023-02-03T03:18:44.335Z,0.90
2023-02-03T03:21:15.690Z,1.10
2023-02-03T03:23:49.290Z,1.40
2023-02-03T03:26:32.349Z,1.10
2023-02-03T03:29:10.475Z,0.73
2023-02-03T03:31:42.115Z,0.93
2023-02-03T03:34:14.343Z,1.10
2023-02-03T03:36:46.550Z,0.90
2023-02-03T03:39:19.307Z,0.93
2023-02-03T03:41:57.468Z,1.00
2023-02-03T03:44:28.585Z,0.80
2023-02-03T03:47:03.921Z,0.63
2023-02-03T03:49:35.495Z,0.80
2023-02-03T03:52:07.810Z,0.80
2023-02-03T03:54:37.676Z,0.60
2023-02-03T03:57:17.793Z,0.70
2023-02-03T03:59:48.801Z,0.80
2023-02-03T04:02:19.598Z,0.70
2023-02-03T04:04:53.097Z,0.77
2023-02-03T04:07:21.160Z,0.67
2023-02-03T04:09:51.372Z,1.23
2023-02-03T04:12:26.483Z,1.00
2023-02-03T04:14:54.408Z,0.70
2023-02-03T04:17:22.297Z,1.00
2023-02-03T04:19:50.346Z,0.80
2023-02-03T04:22:22.754Z,0.93
2023-02-03T04:24:59.337Z,0.83
2023-02-03T04:27:27.826Z,1.10
2023-02-03T04:29:58.844Z,1.00
2023-02-03T04:32:31.011Z,0.90
2023-02-03T04:34:59.797Z,1.10
2023-02-03T04:37:29.526Z,0.70
2023-02-03T04:39:58.554Z,0.80
2023-02-03T04:42:26.927Z,1.00
2023-02-03T04:44:57.148Z,1.10
2023-02-03T04:47:28.277Z,0.80
2023-02-03T04:50:03.102Z,0.73
2023-02-03T04:52:36.550Z,1.00
2023-02-03T04:55:04.509Z,0.80
2023-02-03T04:57:37.338Z,0.90
2023-02-03T05:00:09.720Z,0.77
2023-02-03T05:02:37.702Z,0.63
2023-02-03T05:05:10.604Z,1.27
2023-02-03T05:07:41.248Z,1.03
2023-02-03T05:10:14.518Z,1.30
2023-02-03T05:12:45.066Z,1.07
2023-02-03T05:15:16.508Z,0.97
2023-02-03T05:17:44.828Z,1.13
2023-02-03T05:20:24.644Z,1.07
2023-02-03T05:22:53.972Z,1.20
2023-02-03T05:25:24.675Z,0.97
2023-02-03T05:27:52.787Z,0.80
2023-02-03T05:30:21.919Z,1.37
2023-02-03T05:32:50.900Z,1.10
2023-02-03T05:35:23.450Z,1.00
2023-02-03T05:37:55.268Z,1.87
2023-02-03T05:40:51.555Z,0.93
2023-02-03T05:43:21.210Z,1.17
2023-02-03T05:45:49.650Z,1.60
2023-02-03T05:48:19.496Z,1.53
2023-02-03T05:50:48.942Z,1.30
2023-02-03T05:53:20.176Z,1.70
2023-02-03T05:55:48.013Z,2.07
2023-02-03T05:58:15.919Z,1.57
2023-02-03T06:00:43.786Z,1.27
2023-02-03T06:03:11.623Z,1.23
2023-02-03T06:05:42.655Z,0.97
2023-02-03T06:08:13.916Z,1.33
2023-02-03T06:10:44.256Z,1.27
2023-02-03T06:13:14.173Z,1.67
2023-02-03T06:15:42.488Z,1.40
2023-02-03T06:18:11.459Z,1.40
2023-02-03T06:20:41.654Z,1.33
2023-02-03T06:23:12.463Z,1.20
2023-02-03T06:25:40.405Z,1.10
2023-02-03T06:28:13.419Z,1.10
2023-02-03T06:30:46.292Z,1.23
2023-02-03T06:33:18.834Z,1.50
2023-02-03T06:35:47.256Z,1.20
2023-02-03T06:38:19.131Z,1.17
2023-02-03T06:40:48.306Z,1.13
2023-02-03T06:43:18.473Z,1.37
2023-02-03T06:45:47.002Z,1.40
2023-02-03T06:48:17.244Z,1.27
2023-02-03T06:50:54.066Z,1.23
2023-02-03T06:53:22.022Z,1.80
2023-02-03T06:55:52.862Z,1.63
2023-02-03T06:58:23.476Z,2.27
2023-02-03T07:00:58.387Z,1.30
2023-02-03T07:03:26.316Z,2.50
2023-02-03T07:05:59.642Z,1.50
2023-02-03T07:08:29.617Z,2.10
2023-02-03T07:11:00.973Z,1.57
2023-02-03T07:13:33.499Z,1.97
2023-02-03T07:16:04.683Z,1.80
2023-02-03T07:18:48.389Z,1.67
2023-02-03T07:21:20.362Z,1.63
2023-02-03T07:23:54.685Z,2.13
2023-02-03T07:26:23.065Z,1.17
2023-02-03T07:29:04.070Z,1.20
2023-02-03T07:31:40.371Z,1.20
2023-02-03T07:34:08.302Z,1.47
2023-02-03T07:36:39.432Z,1.40
2023-02-03T07:39:08.332Z,1.50
2023-02-03T07:41:38.821Z,1.80
2023-02-03T07:44:10.121Z,1.80
2023-02-03T07:46:39.999Z,1.20
2023-02-03T07:49:09.130Z,1.50
2023-02-03T07:51:37.614Z,1.77
2023-02-03T07:54:08.465Z,1.53
2023-02-03T07:56:36.529Z,1.50
2023-02-03T07:59:09.782Z,1.57
2023-02-03T08:01:41.265Z,1.60
2023-02-03T08:04:16.450Z,1.03
2023-02-03T08:06:44.768Z,0.90
2023-02-03T08:09:12.652Z,1.20
2023-02-03T08:11:43.359Z,1.27
2023-02-03T08:14:12.845Z,1.23
2023-02-03T08:16:42.067Z,1.00
2023-02-03T08:19:10.360Z,1.07
2023-02-03T08:21:39.819Z,0.90
2023-02-03T08:24:09.599Z,1.43
2023-02-03T08:26:37.878Z,1.30
2023-02-03T08:29:08.171Z,0.80
2023-02-03T08:31:37.984Z,1.20
2023-02-03T08:34:06.670Z,1.00
2023-02-03T08:36:37.378Z,1.10
2023-02-03T08:39:05.582Z,0.97
2023-02-03T08:41:36.332Z,1.00
2023-02-03T08:44:05.646Z,1.17
2023-02-03T08:46:34.927Z,1.40
2023-02-03T08:49:05.563Z,0.80
2023-02-03T08:51:33.591Z,1.30
2023-02-03T08:54:01.563Z,1.00
2023-02-03T08:56:29.836Z,1.03
2023-02-03T08:59:00.253Z,1.20
2023-02-03T09:01:29.289Z,1.47
2023-02-03T09:04:05.605Z,1.40
2023-02-03T09:06:37.459Z,1.10
2023-02-03T09:09:11.017Z,1.20
2023-02-03T09:11:39.306Z,1.67
2023-02-03T09:14:13.475Z,0.90
2023-02-03T09:16:42.326Z,1.50
2023-02-03T09:19:13.533Z,1.20
2023-02-03T09:21:45.884Z,0.80
2023-02-03T09:24:16.945Z,0.70
2023-02-03T09:26:45.479Z,0.70
2023-02-03T09:29:16.224Z,1.00
2023-02-03T09:31:47.018Z,0.87
2023-02-03T09:34:15.110Z,1.40
2023-02-03T09:36:49.563Z,0.83
2023-02-03T09:39:18.800Z,0.93
2023-02-03T09:42:09.817Z,1.00
2023-02-03T09:44:44.098Z,1.33
2023-02-03T09:47:14.616Z,0.93
2023-02-03T09:49:47.408Z,1.67
2023-02-03T09:55:07.390Z,0.97
2023-02-03T09:57:42.038Z,1.00
2023-02-03T10:00:18.156Z,1.03
2023-02-03T10:02:59.738Z,0.93
2023-02-03T10:05:54.243Z,0.90
2023-02-03T10:08:36.999Z,0.90
2023-02-03T10:11:17.125Z,1.23
2023-02-03T10:13:53.659Z,1.10
2023-02-03T10:16:48.139Z,1.00
2023-02-03T10:19:20.683Z,1.20
2023-02-03T10:21:50.136Z,0.80
2023-02-03T10:24:24.535Z,0.90
2023-02-03T10:26:53.170Z,0.90
2023-02-03T10:29:22.991Z,1.10
2023-02-03T10:31:57.329Z,0.70
2023-02-03T10:34:28.163Z,1.07
2023-02-03T10:36:58.435Z,0.90
2023-02-03T10:39:33.592Z,0.90
2023-02-03T10:42:02.507Z,0.77
2023-02-03T10:44:38.469Z,0.70
2023-02-03T10:47:22.825Z,0.70
2023-02-03T10:49:54.898Z,0.80
2023-02-03T10:52:33.480Z,0.70
2023-02-03T10:55:08.126Z,0.80
2023-02-03T10:57:40.970Z,1.00
2023-02-03T11:00:24.582Z,0.87
2023-02-03T11:02:58.859Z,0.70
2023-02-03T11:05:27.927Z,1.00
2023-02-03T11:08:00.179Z,1.23
2023-02-03T11:10:35.479Z,0.90
2023-02-03T11:13:15.297Z,1.13
2023-02-03T11:15:54.379Z,1.10
2023-02-03T11:18:44.714Z,0.70
2023-02-03T11:21:21.714Z,0.97
2023-02-03T11:24:03.450Z,0.90
2023-02-03T11:26:37.536Z,1.20
2023-02-03T11:29:11.325Z,0.70
2023-02-03T11:31:50.059Z,0.80
2023-02-03T11:34:21.681Z,1.13
2023-02-03T11:36:58.048Z,0.60
2023-02-03T11:39:35.645Z,0.60
2023-02-03T11:42:26.960Z,0.70
2023-02-03T11:45:20.121Z,0.80
2023-02-03T11:47:52.927Z,0.97
2023-02-03T11:50:27.162Z,0.83
2023-02-03T11:53:09.092Z,1.00
2023-02-03T11:55:53.422Z,1.17
2023-02-03T11:58:53.690Z,1.07
2023-02-03T12:01:37.870Z,1.10
2023-02-03T12:04:30.758Z,0.60
2023-02-03T12:07:16.592Z,0.77
2023-02-03T12:09:54.062Z,0.90
2023-02-03T12:12:44.094Z,0.90
2023-02-03T12:15:32.481Z,0.70
2023-02-03T12:18:11.948Z,1.10
2023-02-03T12:20:53.724Z,0.90
2023-02-03T12:23:32.536Z,0.90
2023-02-03T12:26:12.606Z,0.70
2023-02-03T12:28:47.224Z,1.00
2023-02-03T12:31:22.035Z,0.93
2023-02-03T12:33:52.064Z,0.80
2023-02-03T12:36:26.301Z,1.10
2023-02-03T12:39:01.080Z,0.70
2023-02-03T12:41:31.934Z,1.20
2023-02-03T12:44:06.150Z,1.10
2023-02-03T12:46:42.938Z,1.00
2023-02-03T12:49:20.249Z,0.90
2023-02-03T12:51:51.573Z,1.57
2023-02-03T12:54:35.262Z,1.30
2023-02-03T12:57:13.859Z,0.97
2023-02-03T12:59:45.987Z,1.10
2023-02-03T13:02:20.089Z,1.00
2023-02-03T13:04:56.976Z,0.90
2023-02-03T13:07:28.968Z,0.83
2023-02-03T13:10:01.923Z,0.80
2023-02-03T13:12:37.743Z,1.37
2023-02-03T13:15:19.796Z,1.10
2023-02-03T13:17:59.362Z,0.83
2023-02-03T13:20:38.696Z,1.80
2023-02-03T13:23:11.203Z,2.07
2023-02-03T13:25:52.580Z,1.03
2023-02-03T13:28:35.680Z,1.27
2023-02-03T13:31:23.544Z,1.20
2023-02-03T13:34:23.800Z,1.00
2023-02-03T13:37:47.500Z,0.97
2023-02-03T13:40:24.081Z,0.77
2023-02-03T13:43:00.697Z,1.37
2023-02-03T13:45:32.683Z,0.90
2023-02-03T13:48:14.307Z,1.37
2023-02-03T13:50:42.682Z,1.67
2023-02-03T13:53:21.353Z,1.20
2023-02-03T13:55:58.732Z,1.10
2023-02-03T13:58:30.790Z,1.07
2023-02-03T14:01:21.285Z,1.07
2023-02-03T14:03:51.722Z,1.20
2023-02-03T14:07:06.104Z,1.00
2023-02-03T14:13:01.141Z,0.90
2023-02-03T14:15:36.660Z,0.90
2023-02-03T14:18:32.053Z,1.07
2023-02-03T14:21:19.313Z,1.00
2023-02-03T14:24:07.653Z,0.90
2023-02-03T14:26:46.044Z,1.20
2023-02-03T14:29:32.082Z,1.07
2023-02-03T14:32:05.337Z,0.80
2023-02-03T14:34:36.077Z,0.90
2023-02-03T14:37:21.853Z,1.43
2023-02-03T14:40:13.663Z,0.83
2023-02-03T14:43:25.422Z,1.40
2023-02-03T14:46:38.546Z,0.90
2023-02-03T14:49:17.338Z,0.63
2023-02-03T14:51:59.567Z,1.27
2023-02-03T14:54:55.699Z,1.10
2023-02-03T14:57:35.880Z,1.10
2023-02-03T15:00:14.275Z,1.20
2023-02-03T15:03:27.776Z,1.00
2023-02-03T15:05:59.714Z,1.27
2023-02-03T15:08:47.091Z,1.03
2023-02-03T15:11:32.964Z,1.37
2023-02-03T15:14:21.884Z,1.00
2023-02-03T15:16:56.270Z,0.90
2023-02-03T15:19:27.304Z,0.87
2023-02-03T15:21:56.801Z,0.90
2023-02-03T15:24:25.934Z,1.10
2023-02-03T15:26:56.227Z,0.90
2023-02-03T15:29:29.194Z,0.90
2023-02-03T15:32:04.551Z,1.03
2023-02-03T15:34:37.722Z,1.10
2023-02-03T15:37:14.092Z,0.90
2023-02-03T15:40:00.091Z,1.67
2023-02-03T15:42:31.234Z,0.90
2023-02-03T15:45:10.624Z,1.10
2023-02-03T15:47:46.562Z,0.90
2023-02-03T15:50:26.751Z,1.07
2023-02-03T15:52:59.319Z,1.00
2023-02-03T15:55:35.723Z,1.33
2023-02-03T15:58:06.235Z,1.17
2023-02-03T16:00:39.291Z,1.17
2023-02-03T16:03:21.959Z,2.17
2023-02-03T16:05:50.395Z,1.20
2023-02-03T16:08:46.205Z,1.97
2023-02-03T16:11:28.664Z,1.70
2023-02-03T16:14:01.571Z,1.53
2023-02-03T16:16:32.341Z,1.83
2023-02-03T16:19:05.095Z,1.60
2023-02-03T16:21:40.512Z,2.00
2023-02-03T16:24:37.714Z,1.63
2023-02-03T16:27:40.616Z,1.90
2023-02-03T16:30:41.502Z,1.67
2023-02-03T16:33:34.141Z,1.80
2023-02-03T16:36:28.629Z,1.60
2023-02-03T16:39:13.942Z,1.20
2023-02-03T16:42:04.094Z,1.40
2023-02-03T16:44:49.467Z,1.57
2023-02-03T16:47:42.462Z,1.47
2023-02-03T16:50:39.115Z,1.53
2023-02-03T16:53:14.175Z,1.77
2023-02-03T16:55:42.423Z,1.80
2023-02-03T16:58:12.634Z,2.00
2023-02-03T17:00:42.676Z,2.00
2023-02-03T17:03:11.742Z,1.20
2023-02-03T17:05:42.854Z,1.83
2023-02-03T17:08:11.772Z,1.33
2023-02-03T17:10:48.637Z,1.63
2023-02-03T17:13:24.858Z,1.97
2023-02-03T17:15:53.702Z,1.50
2023-02-03T17:18:22.825Z,1.70
2023-02-03T17:20:51.033Z,1.60
2023-02-03T17:23:23.599Z,1.27
2023-02-03T17:25:51.748Z,1.53
2023-02-03T17:28:23.544Z,1.37
2023-02-03T17:30:58.706Z,1.03
2023-02-03T17:33:27.420Z,1.10
2023-02-03T17:36:06.883Z,1.27
2023-02-03T17:55:25.957Z,1.40
2023-02-03T17:57:53.833Z,2.47
2023-02-03T18:00:23.443Z,2.40
2023-02-03T18:02:52.071Z,5.10
2023-02-03T18:05:20.589Z,2.47
2023-02-03T18:07:54.103Z,3.27
2023-02-03T18:10:23.105Z,1.93
2023-02-03T18:12:51.038Z,2.30
2023-02-03T18:15:20.150Z,1.80
2023-02-03T18:17:49.554Z,1.60
2023-02-03T18:20:17.618Z,1.77
2023-02-03T18:22:48.497Z,1.57
2023-02-03T18:25:18.562Z,1.80
2023-02-03T18:27:49.172Z,1.73
2023-02-03T18:30:21.721Z,1.40
2023-02-03T18:32:54.547Z,1.90
2023-02-03T18:35:25.219Z,2.00
2023-02-03T18:37:53.566Z,1.53
2023-02-03T18:40:22.783Z,2.30
2023-02-03T18:42:56.471Z,1.50
2023-02-03T18:45:24.498Z,2.93
2023-02-03T18:47:59.144Z,3.20
2023-02-03T18:50:29.340Z,2.30
2023-02-03T18:52:57.481Z,2.17
2023-02-03T18:55:28.499Z,2.40
2023-02-03T18:57:56.377Z,2.20
2023-02-03T19:00:27.933Z,1.57
2023-02-03T19:03:00.507Z,2.37
2023-02-03T19:05:30.921Z,2.00
2023-02-03T19:08:09.093Z,2.23
2023-02-03T19:10:38.771Z,2.93
2023-02-03T19:13:10.061Z,2.60
2023-02-03T19:15:42.108Z,1.73
2023-02-03T19:18:11.793Z,1.87
2023-02-03T19:20:40.699Z,1.93
2023-02-03T19:23:08.952Z,2.30
2023-02-03T19:25:39.534Z,2.20
2023-02-03T19:28:14.207Z,2.00
2023-02-03T19:30:45.637Z,2.00
2023-02-03T19:33:15.764Z,1.53
2023-02-03T19:35:50.014Z,1.90
2023-02-03T19:38:23.534Z,1.70
2023-02-03T19:40:51.627Z,1.93
2023-02-03T19:43:19.534Z,1.43
2023-02-03T19:45:50.212Z,2.60
2023-02-03T19:48:20.497Z,1.90
2023-02-03T19:50:49.310Z,1.87
2023-02-03T19:53:19.712Z,1.40
2023-02-03T19:55:53.173Z,1.40
2023-02-03T19:58:21.380Z,1.50
2023-02-03T20:00:49.530Z,2.00
2023-02-03T20:03:18.336Z,1.60
2023-02-03T20:05:50.767Z,1.87
2023-02-03T20:08:18.698Z,2.40
2023-02-03T20:10:46.800Z,2.57
2023-02-03T20:13:18.430Z,2.10
2023-02-03T20:15:47.756Z,1.90
2023-02-03T20:18:15.815Z,2.47
2023-02-03T20:20:44.130Z,1.73
2023-02-03T20:23:31.795Z,1.40
2023-02-03T20:26:02.137Z,1.53
2023-02-03T20:28:30.690Z,2.33
2023-02-03T20:31:08.040Z,1.60
2023-02-03T20:33:36.168Z,1.10
2023-02-03T20:36:04.312Z,1.30
2023-02-03T20:38:37.830Z,1.57
2023-02-03T20:41:11.368Z,2.00
2023-02-03T20:43:42.702Z,1.80
2023-02-03T20:46:14.948Z,1.60
2023-02-03T20:48:46.043Z,1.43
2023-02-03T20:51:14.454Z,0.87
2023-02-03T20:53:46.860Z,1.40
2023-02-03T20:56:17.387Z,1.20
2023-02-03T20:58:45.782Z,1.47
2023-02-03T21:01:27.630Z,1.40
2023-02-03T21:04:12.929Z,1.30
2023-02-03T21:06:43.765Z,1.50
2023-02-03T21:09:16.448Z,1.97
2023-02-03T21:11:47.315Z,1.63
2023-02-03T21:14:23.627Z,2.50
2023-02-03T21:16:55.036Z,2.07
2023-02-03T21:19:31.676Z,2.20
2023-02-03T21:22:01.221Z,3.63
2023-02-03T21:24:34.303Z,2.00
2023-02-03T21:27:02.614Z,2.10
2023-02-03T21:29:32.998Z,2.87
2023-02-03T21:32:04.119Z,2.43
2023-02-03T21:34:37.680Z,4.30
2023-02-03T21:37:39.242Z,2.70
2023-02-03T21:40:22.173Z,2.53
2023-02-03T21:42:50.040Z,3.30
2023-02-03T21:45:47.665Z,2.90
2023-02-03T21:48:28.152Z,3.63
2023-02-03T21:50:56.949Z,3.07
2023-02-03T21:53:36.147Z,3.50
2023-02-03T21:56:36.962Z,3.53
2023-02-03T21:59:15.686Z,3.40
2023-02-03T22:01:47.097Z,4.03
2023-02-03T22:07:04.417Z,3.70
2023-02-03T22:09:34.502Z,3.40
2023-02-03T22:12:03.852Z,3.23
2023-02-03T22:14:31.732Z,2.90
2023-02-03T22:16:59.692Z,3.60
2023-02-03T22:19:27.631Z,3.03
2023-02-03T22:21:55.875Z,3.60
2023-02-03T22:24:23.701Z,3.70
2023-02-03T22:26:52.784Z,4.23
2023-02-03T22:29:23.153Z,4.07
2023-02-03T22:31:54.987Z,3.30
2023-02-03T22:34:23.502Z,3.70
2023-02-03T22:37:00.281Z,3.90
2023-02-03T22:39:30.250Z,3.30
2023-02-03T22:42:00.512Z,4.50
2023-02-03T22:44:30.060Z,5.53
2023-02-03T22:46:58.132Z,4.20
2023-02-03T22:49:28.225Z,3.90
2023-02-03T22:51:58.880Z,4.67
2023-02-03T22:54:26.746Z,3.93
2023-02-03T22:56:59.862Z,3.30
2023-02-03T22:59:29.038Z,3.00
2023-02-03T23:01:58.305Z,4.07
2023-02-03T23:04:26.220Z,4.53
2023-02-03T23:06:54.338Z,4.37
2023-02-03T23:09:22.097Z,4.70
2023-02-03T23:11:49.940Z,3.97
2023-02-03T23:14:21.009Z,4.20
2023-02-03T23:16:50.176Z,4.20
2023-02-03T23:19:27.223Z,4.60
2023-02-03T23:21:55.336Z,4.17
2023-02-03T23:24:26.129Z,3.93
2023-02-03T23:27:00.143Z,3.73
2023-02-03T23:29:30.358Z,4.03
2023-02-03T23:31:59.580Z,3.60
2023-02-03T23:34:47.912Z,4.40
2023-02-03T23:37:23.938Z,3.87
2023-02-03T23:39:54.555Z,4.20
2023-02-03T23:42:24.987Z,3.07
2023-02-03T23:44:52.731Z,4.27
2023-02-03T23:47:23.963Z,3.40
2023-02-03T23:49:51.897Z,4.07
2023-02-03T23:52:19.757Z,4.57
2023-02-03T23:54:48.850Z,3.20
2023-02-03T23:57:18.472Z,3.27
2023-02-03T23:59:49.362Z,4.23
